London Corbin Airport Magee Field London US
ICAO: KLOZ
IATA: LOZ
Category: Medium
Scheduled Services: No

Elevation: 1212 ft
TransAlt. 18000 ft.

Airport Communications:
ASOS:119.075
INDIANAPOLIS CNTR:121.325
LOUISVILLE RDO:122.2
CTAF/UNICOM:123

KLOZ Zoom In..

If you have problems with the map follow the link
https://www.worldairports.se/pages/airport.php?
ICAO=KLOZ

Runways:

(A) RW 06 length 5751 ft width 150 ft
ILS 110.90 / hdg 57

(B) RW 24 length 5751 ft width 150 ft
---- / hdg 237

Location; KLOZ
Day. 16 / Time. 02.53 Zulu
* Altimeter: 30.08
* Temperature: -02° c. -28.4°f.
* Wind from: 290° Speed 09 kn.
Dewpoint: -03° c.
Visibility: 9 Statute Miles.
Clouds: Few 1500 ft.
Clouds: Overcast 2200 ft.

KLOZ 160253Z AUTO 29009KT 9SM FEW015 OVC022 M02/M03 A3008 RMK AO2 SLP193 60000 T10171028 51013


Wind From 290°
Speed 09 kn.

 
 
jpsmedia.com for Web Design worldairports.se 2018   terms of use